Aeroporto :
LOGIN :

Iscrizione | Disclaimer

   EN    FR    IT 

 










Sommario :    VFR   VFR Marginale   IFR   IFR Intensivo   IFR Molto Intensivo
Visibilità : 
Base nubi : 
>= 8 km
>= 3000ft
5 / 8 km
1000 / 3000 ft
1500m / 5 km
500 / 1000 ft
800 / 1500m
200 / 500 ft
< 800m
< 200 ft
Simboli :   Temporali  Nebbia  Neve Forte  Precipitazioni Forti  Vento > 20 kt
SIGMETs :   Varie  Temporali  Ghiacco  Turbolenza  Onda orograficha  Ceneri Vulcaniche






- Altitudine del aeroporto : -11 ft
- Codice IATA : AMS


EHAM - Amsterdam Schiphol

ULTIMO METAR :
  • 060025Z 14011KT CAVOK 12/02 Q1015 NOSIG

METARs OBSOLETI :
  • 052355Z 14012KT CAVOK 13/01 Q1015 NOSIG
  • 052325Z 14012KT CAVOK 13/01 Q1015 NOSIG
  • 052255Z 14013KT CAVOK 13/01 Q1015 NOSIG
  • 052225Z 14013KT 110V170 CAVOK 14/01 Q1015 NOSIG
  • 052155Z 14013KT CAVOK 14/01 Q1015 NOSIG

TAF TAF EHAM
Valido dal 06 a 00 ore il 07 a 06 ore UTC


052307Z 0600/0706 14010KT CAVOK
BECMG 0606/0609 19012KT
BECMG 0612/0615 24015KT
PROB40
TEMPO 0616/0619 7000 -RA SCT014 BKN018
BECMG 0619/0622 24005KT 4000 BR
BECMG 0622/0701 VRB03KT 1400 BCFG
BECMG 0701/0704 0600 FG
PROB30
TEMPO 0702/0706 0200 VV001



MetMap, La meteo Aeronautica in un colpo d'occhio ! - Copyright ORBIFLY Dicembre 2007 - Disclaimer

ORBIFLY MET'MAP TEAM :

Programmazione e sviluppo : Alexandra Zaïnal
Concezione : Baudouin d'Aumeries
Aiuto per la programmazione : Marc-Olivier Méhu
Supporto tecnico e logistico : Manuel Goepfert
Aiuto per la traduzione : Arnaldo La Scala

Contatto : metmap@orbifly.com




FONTI E CREDITI :

   NOAA